Time;durP1;ratioP1;P1;durP2;ratioP2;P2;SDS_P1;SDS_P2;PMS_P1;PMS_P2;Temp;Humidity;BMP_temperature;BMP_pressure;BME280_temperature;BME280_humidity;BME280_pressure;Samples;Min_cycle;Max_cycle;Signal;HPM_P1;HPM_P2
2023/06/21 00:00:30;;;;;;;35.80;23.45;;;;;;;;;;5037542;28;20030;-79
2023/06/21 00:02:56;;;;;;;31.67;22.42;;;;;;;;;;5037010;28;20049;-79
2023/06/21 00:05:21;;;;;;;33.70;22.60;;;;;;;;;;5035905;28;20088;-80
2023/06/21 00:07:48;;;;;;;30.90;22.70;;;;;;;;;;5037026;28;20119;-80
2023/06/21 00:10:13;;;;;;;27.75;21.27;;;;;;;;;;5019607;28;20029;-79
2023/06/21 00:12:39;;;;;;;34.85;22.73;;;;;;;;;;5036744;28;20477;-80
2023/06/21 00:15:04;;;;;;;30.60;22.73;;;;;;;;;;5036972;28;20033;-80
2023/06/21 00:17:30;;;;;;;31.23;21.45;;;;;;;;;;5019221;28;20030;-80
2023/06/21 00:19:55;;;;;;;32.40;22.52;;;;;;;;;;5037370;28;20029;-80
2023/06/21 00:22:24;;;;;;;34.13;21.98;;;;;;;;;;5036831;28;20462;-79
2023/06/21 00:24:49;;;;;;;34.78;22.33;;;;;;;;;;5019692;28;20067;-80
2023/06/21 00:27:16;;;;;;;32.83;22.27;;;;;;;;;;5035859;28;20077;-79
2023/06/21 00:29:42;;;;;;;32.05;22.60;;;;;;;;;;5018975;28;20202;-80
2023/06/21 00:32:07;;;;;;;35.40;21.98;;;;;;;;;;5036638;28;20116;-80
2023/06/21 00:34:34;;;;;;;34.78;21.70;;;;;;;;;;5036753;28;20087;-82
2023/06/21 00:37:02;;;;;;;34.08;22.45;;;;;;;;;;5036639;28;20164;-82
2023/06/21 00:39:27;;;;;;;34.90;22.45;;;;;;;;;;5036162;28;20052;-82
2023/06/21 00:41:53;;;;;;;33.35;22.00;;;;;;;;;;5017755;28;20467;-80
2023/06/21 00:44:18;;;;;;;33.50;22.17;;;;;;;;;;5036528;28;20332;-80
2023/06/21 00:46:44;;;;;;;32.17;23.23;;;;;;;;;;5036335;28;20045;-80
2023/06/21 00:49:09;;;;;;;37.58;23.05;;;;;;;;;;5051564;28;20052;-80
2023/06/21 00:51:36;;;;;;;28.90;21.83;;;;;;;;;;5018604;28;20025;-80
2023/06/21 00:54:02;;;;;;;35.22;22.88;;;;;;;;;;5035076;28;20079;-80
2023/06/21 00:56:28;;;;;;;30.13;21.23;;;;;;;;;;5036145;28;20030;-80
2023/06/21 00:58:53;;;;;;;27.80;22.10;;;;;;;;;;5018827;28;20059;-80
2023/06/21 01:01:19;;;;;;;28.20;21.33;;;;;;;;;;5018166;28;20091;-80
2023/06/21 01:03:45;;;;;;;29.15;21.83;;;;;;;;;;5036072;28;20112;-80
2023/06/21 01:06:20;;;;;;;29.65;19.65;;;;;;;;;;5036453;28;20054;-80
2023/06/21 01:09:11;;;;;;;30.27;21.25;;;;;;;;;;5034928;28;20116;-80
2023/06/21 01:11:58;;;;;;;30.17;21.23;;;;;;;;;;5050957;28;20036;-81
2023/06/21 01:14:48;;;;;;;27.23;19.55;;;;;;;;;;5018465;28;20029;-80
2023/06/21 01:17:14;;;;;;;29.10;20.33;;;;;;;;;;5034666;28;20069;-80
2023/06/21 01:19:47;;;;;;;36.45;21.38;;;;;;;;;;5018086;28;20500;-80
2023/06/21 01:22:32;;;;;;;32.22;20.67;;;;;;;;;;5034644;28;20490;-80
2023/06/21 01:25:14;;;;;;;27.85;20.52;;;;;;;;;;5018164;28;20028;-80
2023/06/21 01:28:00;;;;;;;32.42;20.52;;;;;;;;;;5034641;28;20049;-80
2023/06/21 01:30:25;;;;;;;29.17;20.27;;;;;;;;;;5034582;28;20411;-80
2023/06/21 01:32:53;;;;;;;31.45;20.48;;;;;;;;;;5017859;28;20116;-80
2023/06/21 01:35:20;;;;;;;34.20;21.45;;;;;;;;;;5018173;28;20025;-80
2023/06/21 01:37:47;;;;;;;35.60;21.20;;;;;;;;;;5017894;28;20021;-80
2023/06/21 01:40:15;;;;;;;29.45;21.02;;;;;;;;;;5017427;28;20117;-80
2023/06/21 01:42:40;;;;;;;31.60;20.75;;;;;;;;;;5035362;28;20037;-79
2023/06/21 01:45:06;;;;;;;30.88;21.20;;;;;;;;;;5034113;28;20025;-81
2023/06/21 01:47:33;;;;;;;30.55;20.27;;;;;;;;;;5035177;28;20029;-80
2023/06/21 01:49:58;;;;;;;32.15;21.15;;;;;;;;;;5034178;28;20056;-80
2023/06/21 01:52:24;;;;;;;31.27;20.77;;;;;;;;;;5017185;28;20431;-80
2023/06/21 01:54:50;;;;;;;26.45;20.50;;;;;;;;;;5033659;28;20107;-79
2023/06/21 01:57:15;;;;;;;34.33;21.25;;;;;;;;;;5017351;28;20435;-80
2023/06/21 01:59:41;;;;;;;33.08;20.35;;;;;;;;;;5017413;28;20030;-80
2023/06/21 02:02:08;;;;;;;28.08;20.60;;;;;;;;;;5035016;28;20368;-80
2023/06/21 02:04:33;;;;;;;28.40;20.52;;;;;;;;;;5033748;28;20036;-80
2023/06/21 02:06:59;;;;;;;29.40;20.02;;;;;;;;;;5017236;28;20026;-80
2023/06/21 02:09:24;;;;;;;30.35;21.77;;;;;;;;;;5016872;28;20037;-80
2023/06/21 02:11:50;;;;;;;29.08;21.10;;;;;;;;;;5017195;28;20029;-80
2023/06/21 02:14:15;;;;;;;26.25;20.70;;;;;;;;;;5017074;28;20021;-80
2023/06/21 02:16:41;;;;;;;32.03;21.33;;;;;;;;;;5034945;28;20124;-80
2023/06/21 02:19:07;;;;;;;29.05;21.17;;;;;;;;;;5033381;28;20025;-81
2023/06/21 02:21:32;;;;;;;38.60;21.35;;;;;;;;;;5033457;28;20029;-80
2023/06/21 02:23:58;;;;;;;31.58;22.27;;;;;;;;;;5016650;28;20048;-81
2023/06/21 02:26:23;;;;;;;37.22;22.35;;;;;;;;;;5016865;28;20079;-80
2023/06/21 02:28:49;;;;;;;36.85;22.10;;;;;;;;;;5017116;28;20037;-80
2023/06/21 02:31:14;;;;;;;30.27;21.20;;;;;;;;;;5034386;28;20417;-80
2023/06/21 02:33:42;;;;;;;33.40;22.13;;;;;;;;;;5033509;28;20044;-80
2023/06/21 02:36:07;;;;;;;39.33;22.23;;;;;;;;;;5033456;28;20021;-80
2023/06/21 02:38:33;;;;;;;30.33;22.17;;;;;;;;;;5016416;28;20117;-80
2023/06/21 02:40:59;;;;;;;32.42;21.52;;;;;;;;;;5034202;28;20018;-80
2023/06/21 02:43:24;;;;;;;31.63;21.40;;;;;;;;;;5034121;28;20017;-81
2023/06/21 02:45:49;;;;;;;32.83;21.38;;;;;;;;;;5034199;28;20024;-80
2023/06/21 02:48:15;;;;;;;31.45;21.42;;;;;;;;;;5016452;28;20037;-81
2023/06/21 02:50:41;;;;;;;31.33;21.52;;;;;;;;;;5034402;28;20443;-80
2023/06/21 02:53:06;;;;;;;35.03;21.65;;;;;;;;;;5016129;28;20087;-81
2023/06/21 02:55:32;;;;;;;30.75;20.58;;;;;;;;;;5017038;28;20025;-81
2023/06/21 02:57:57;;;;;;;34.10;21.35;;;;;;;;;;5034100;28;20465;-80
2023/06/21 03:00:23;;;;;;;36.65;20.58;;;;;;;;;;5032731;28;20026;-80
2023/06/21 03:03:08;;;;;;;37.22;22.08;;;;;;;;;;5033503;28;20045;-80
2023/06/21 03:05:39;;;;;;;29.30;21.02;;;;;;;;;;5032928;28;20072;-80
2023/06/21 03:08:07;;;;;;;37.22;20.98;;;;;;;;;;5016775;28;20040;-81
2023/06/21 03:10:32;;;;;;;31.42;21.70;;;;;;;;;;5016652;28;20033;-81
2023/06/21 03:12:58;;;;;;;30.27;21.20;;;;;;;;;;5016326;28;20117;-80
2023/06/21 03:15:23;;;;;;;35.38;21.17;;;;;;;;;;5032708;28;20033;-81
2023/06/21 03:17:49;;;;;;;34.08;21.75;;;;;;;;;;5032770;28;20033;-81
2023/06/21 03:20:14;;;;;;;31.00;21.15;;;;;;;;;;5044715;28;20033;-81
2023/06/21 03:22:41;;;;;;;33.88;21.33;;;;;;;;;;5050109;28;20029;-80
2023/06/21 03:25:08;;;;;;;32.58;21.60;;;;;;;;;;5034943;28;20009;-80
2023/06/21 03:27:34;;;;;;;40.45;21.85;;;;;;;;;;5050348;28;20085;-80
2023/06/21 03:29:59;;;;;;;34.95;21.65;;;;;;;;;;5066310;28;20021;-81
2023/06/21 03:32:25;;;;;;;33.85;22.30;;;;;;;;;;5045256;28;20366;-80
2023/06/21 03:34:50;;;;;;;35.20;23.38;;;;;;;;;;5033871;28;20457;-80
2023/06/21 03:37:16;;;;;;;30.52;21.60;;;;;;;;;;4999500;28;20036;-80
2023/06/21 03:39:41;;;;;;;35.75;22.70;;;;;;;;;;5033562;28;20044;-81
2023/06/21 03:42:07;;;;;;;33.78;21.73;;;;;;;;;;5033495;28;20021;-81
2023/06/21 03:44:32;;;;;;;33.67;21.45;;;;;;;;;;5033498;28;20029;-80
2023/06/21 03:46:58;;;;;;;32.97;22.35;;;;;;;;;;5033413;28;20336;-80
2023/06/21 03:49:23;;;;;;;37.03;21.30;;;;;;;;;;5031960;28;20383;-80
2023/06/21 03:51:49;;;;;;;32.55;21.48;;;;;;;;;;5016196;28;20072;-80
2023/06/21 03:54:14;;;;;;;33.40;22.50;;;;;;;;;;5033386;28;20033;-80
2023/06/21 03:56:40;;;;;;;31.67;21.77;;;;;;;;;;5032263;28;20034;-79
2023/06/21 03:59:05;;;;;;;40.55;22.45;;;;;;;;;;5033616;28;20030;-80
2023/06/21 04:01:31;;;;;;;31.80;21.98;;;;;;;;;;5033185;28;20057;-80
2023/06/21 04:03:56;;;;;;;35.22;21.60;;;;;;;;;;5033653;28;20029;-79
2023/06/21 04:06:22;;;;;;;35.67;21.92;;;;;;;;;;5033351;28;20033;-80
2023/06/21 04:08:47;;;;;;;37.47;21.50;;;;;;;;;;5015613;28;20041;-81
2023/06/21 04:11:14;;;;;;;33.00;22.33;;;;;;;;;;5015612;28;20423;-80
2023/06/21 04:13:39;;;;;;;29.65;20.65;;;;;;;;;;5015723;28;20032;-80
2023/06/21 04:16:04;;;;;;;34.15;21.35;;;;;;;;;;5018797;28;20386;-81
2023/06/21 04:18:30;;;;;;;38.90;22.63;;;;;;;;;;5036816;28;20037;-81
2023/06/21 04:20:55;;;;;;;33.28;22.70;;;;;;;;;;5036693;28;20136;-80
2023/06/21 04:23:21;;;;;;;34.03;21.00;;;;;;;;;;5019108;28;20470;-81
2023/06/21 04:25:46;;;;;;;37.15;21.98;;;;;;;;;;5052424;28;20182;-80
2023/06/21 04:28:11;;;;;;;29.75;20.27;;;;;;;;;;5019296;28;20451;-80
2023/06/21 04:30:37;;;;;;;32.22;20.98;;;;;;;;;;5036733;28;20367;-81
2023/06/21 04:33:02;;;;;;;37.75;20.65;;;;;;;;;;5035186;28;20040;-80
2023/06/21 04:35:28;;;;;;;38.05;20.67;;;;;;;;;;5036482;28;20052;-80
2023/06/21 04:37:53;;;;;;;34.60;19.77;;;;;;;;;;5036368;28;20470;-81
2023/06/21 04:40:20;;;;;;;30.63;19.75;;;;;;;;;;5036312;28;20060;-83
2023/06/21 04:42:46;;;;;;;33.00;19.17;;;;;;;;;;5018640;28;20036;-84
2023/06/21 04:45:15;;;;;;;35.47;19.23;;;;;;;;;;5018292;28;20033;-84
2023/06/21 04:47:42;;;;;;;29.10;19.88;;;;;;;;;;5034223;28;20075;-83
2023/06/21 04:50:10;;;;;;;31.20;20.20;;;;;;;;;;5035734;28;20037;-83
2023/06/21 04:52:37;;;;;;;31.15;18.88;;;;;;;;;;5037988;28;20029;-84
2023/06/21 04:55:05;;;;;;;29.80;19.08;;;;;;;;;;5018351;28;20026;-84
2023/06/21 04:57:30;;;;;;;33.65;18.77;;;;;;;;;;5016103;28;20091;-84
2023/06/21 04:59:56;;;;;;;29.88;21.05;;;;;;;;;;5039869;28;20033;-83
2023/06/21 05:02:21;;;;;;;24.42;18.42;;;;;;;;;;5055095;28;20132;-84
2023/06/21 05:04:47;;;;;;;32.25;19.08;;;;;;;;;;5050008;28;20132;-84
2023/06/21 05:07:13;;;;;;;35.50;19.48;;;;;;;;;;5019953;28;20071;-83
2023/06/21 05:09:38;;;;;;;30.35;19.00;;;;;;;;;;5042721;28;20041;-85
2023/06/21 05:12:05;;;;;;;30.38;18.75;;;;;;;;;;5041023;28;20041;-83
2023/06/21 05:14:31;;;;;;;28.02;19.20;;;;;;;;;;5031317;28;20203;-85
2023/06/21 05:16:56;;;;;;;31.42;19.77;;;;;;;;;;5031402;28;20469;-84
2023/06/21 05:19:22;;;;;;;28.45;19.70;;;;;;;;;;4998670;28;20124;-85
2023/06/21 05:21:47;;;;;;;30.13;19.80;;;;;;;;;;5038146;28;20127;-87
2023/06/21 05:24:12;;;;;;;27.70;17.75;;;;;;;;;;5038318;28;20022;-86
2023/06/21 05:26:38;;;;;;;25.50;17.70;;;;;;;;;;5039375;28;20022;-86
2023/06/21 05:29:03;;;;;;;23.45;16.58;;;;;;;;;;5035554;28;20148;-87
2023/06/21 05:31:29;;;;;;;24.02;16.63;;;;;;;;;;5016286;28;20063;-88
2023/06/21 05:33:54;;;;;;;30.40;17.83;;;;;;;;;;5049576;28;20029;-88
2023/06/21 05:36:20;;;;;;;20.27;15.15;;;;;;;;;;5035083;28;20031;-88
2023/06/21 05:38:45;;;;;;;23.23;15.23;;;;;;;;;;5054823;28;20103;-86
2023/06/21 05:41:11;;;;;;;25.80;16.20;;;;;;;;;;5054394;28;20520;-86
2023/06/21 05:43:38;;;;;;;22.80;15.93;;;;;;;;;;5034407;28;20028;-87
2023/06/21 05:46:04;;;;;;;21.17;15.25;;;;;;;;;;5057886;28;20081;-85
2023/06/21 05:48:33;;;;;;;29.38;15.77;;;;;;;;;;5058687;28;20112;-86
2023/06/21 05:51:02;;;;;;;21.50;14.98;;;;;;;;;;5061187;28;20417;-84
2023/06/21 05:53:27;;;;;;;27.87;17.47;;;;;;;;;;5039328;28;20029;-86
2023/06/21 05:55:54;;;;;;;24.45;17.65;;;;;;;;;;5040083;28;20275;-85
2023/06/21 05:58:20;;;;;;;23.27;17.67;;;;;;;;;;5051336;28;20029;-86
2023/06/21 06:00:46;;;;;;;23.70;16.08;;;;;;;;;;5052667;28;20047;-86
2023/06/21 06:03:11;;;;;;;23.75;15.13;;;;;;;;;;5028152;28;20041;-86
2023/06/21 06:05:37;;;;;;;27.73;14.43;;;;;;;;;;5034154;28;20443;-85
2023/06/21 06:08:03;;;;;;;21.63;14.20;;;;;;;;;;5033238;28;20367;-86
2023/06/21 06:10:28;;;;;;;22.50;14.02;;;;;;;;;;5034812;28;20034;-87
2023/06/21 06:12:53;;;;;;;18.23;12.63;;;;;;;;;;5017605;28;20136;-87
2023/06/21 06:15:19;;;;;;;19.88;12.23;;;;;;;;;;5038416;28;20033;-88
2023/06/21 06:17:46;;;;;;;18.95;12.50;;;;;;;;;;5034918;28;20131;-87
2023/06/21 06:20:12;;;;;;;22.35;12.25;;;;;;;;;;5054284;28;20043;-87
2023/06/21 06:22:37;;;;;;;17.33;11.70;;;;;;;;;;5034039;28;20033;-87
2023/06/21 06:25:03;;;;;;;17.52;11.98;;;;;;;;;;5031676;28;20025;-85
2023/06/21 06:27:29;;;;;;;16.15;11.43;;;;;;;;;;5027319;28;20037;-87
2023/06/21 06:29:54;;;;;;;96.18;26.00;;;;;;;;;;4998657;28;20037;-87
2023/06/21 06:32:20;;;;;;;17.75;11.20;;;;;;;;;;5033977;28;20079;-87
2023/06/21 06:34:45;;;;;;;13.98;10.15;;;;;;;;;;5037220;28;20482;-86
2023/06/21 06:37:11;;;;;;;17.83;10.43;;;;;;;;;;5038823;28;20032;-88
2023/06/21 06:39:37;;;;;;;13.13;10.25;;;;;;;;;;5019847;28;20037;-85
2023/06/21 06:42:02;;;;;;;17.63;10.60;;;;;;;;;;5016765;28;20835;-88
2023/06/21 06:44:38;;;;;;;13.15;10.68;;;;;;;;;;5049318;28;20039;-87
2023/06/21 06:47:06;;;;;;;12.10;9.98;;;;;;;;;;5059661;28;20033;-89
2023/06/21 06:49:31;;;;;;;10.60;9.60;;;;;;;;;;5053973;28;20029;-88
2023/06/21 06:51:57;;;;;;;13.50;9.30;;;;;;;;;;5019757;28;20025;-87
2023/06/21 06:54:22;;;;;;;15.23;8.80;;;;;;;;;;5052032;28;20127;-88
2023/06/21 06:56:48;;;;;;;13.38;8.90;;;;;;;;;;5037688;28;20488;-89
2023/06/21 06:59:13;;;;;;;10.57;8.57;;;;;;;;;;5053437;28;20430;-89
2023/06/21 07:01:38;;;;;;;9.93;8.75;;;;;;;;;;5039773;28;20058;-88
2023/06/21 07:04:04;;;;;;;13.70;8.60;;;;;;;;;;5012268;28;20033;-88
2023/06/21 07:06:30;;;;;;;15.82;8.35;;;;;;;;;;5044412;28;20025;-88
2023/06/21 07:08:55;;;;;;;12.15;8.52;;;;;;;;;;5013408;28;20048;-87
2023/06/21 07:11:21;;;;;;;12.05;8.60;;;;;;;;;;5050566;28;20025;-89
2023/06/21 07:13:48;;;;;;;9.35;8.02;;;;;;;;;;5037066;28;20471;-89
2023/06/21 07:16:14;;;;;;;11.10;8.63;;;;;;;;;;5036167;28;20068;-89
2023/06/21 07:18:40;;;;;;;12.75;8.05;;;;;;;;;;5020771;28;20029;-87
2023/06/21 07:21:05;;;;;;;13.73;8.35;;;;;;;;;;5033055;28;20120;-87
2023/06/21 07:23:31;;;;;;;8.90;7.80;;;;;;;;;;5051701;28;20449;-86
2023/06/21 07:25:56;;;;;;;13.65;7.85;;;;;;;;;;5051464;28;20095;-81
2023/06/21 07:28:22;;;;;;;11.63;7.60;;;;;;;;;;5015981;28;20379;-81
2023/06/21 07:30:47;;;;;;;15.75;8.38;;;;;;;;;;5029258;28;20368;-82
2023/06/21 07:33:12;;;;;;;14.52;8.13;;;;;;;;;;5044948;28;20037;-82
2023/06/21 07:35:38;;;;;;;12.38;7.70;;;;;;;;;;5014712;28;20553;-82
2023/06/21 07:38:06;;;;;;;11.05;7.82;;;;;;;;;;5046996;28;20029;-82
2023/06/21 07:40:32;;;;;;;10.50;7.57;;;;;;;;;;5046322;28;20067;-81
2023/06/21 07:42:57;;;;;;;12.00;7.68;;;;;;;;;;5031236;28;20406;-81
2023/06/21 07:45:23;;;;;;;9.00;7.25;;;;;;;;;;5010133;28;20029;-82
2023/06/21 07:47:48;;;;;;;8.82;6.90;;;;;;;;;;5032957;28;20074;-79
2023/06/21 07:50:14;;;;;;;8.02;7.20;;;;;;;;;;5038731;28;20165;-81
2023/06/21 07:52:39;;;;;;;19.40;6.97;;;;;;;;;;5053534;28;20450;-79
2023/06/21 07:55:05;;;;;;;7.82;6.72;;;;;;;;;;5051874;28;20225;-81
2023/06/21 07:57:31;;;;;;;10.82;6.85;;;;;;;;;;5053236;28;20043;-82
2023/06/21 08:00:02;;;;;;;9.55;6.72;;;;;;;;;;5038602;28;20037;-82
2023/06/21 08:02:30;;;;;;;8.30;6.90;;;;;;;;;;5037253;28;20048;-81
2023/06/21 08:04:58;;;;;;;7.35;6.75;;;;;;;;;;5036801;28;20486;-80
2023/06/21 08:07:24;;;;;;;12.68;7.03;;;;;;;;;;5051691;28;20431;-81
2023/06/21 08:09:52;;;;;;;8.68;6.80;;;;;;;;;;5020498;28;20061;-79
2023/06/21 08:12:18;;;;;;;;;;;;;;;;;;5020305;28;20036;-81
2023/06/21 08:14:43;;;;;;;8.55;6.05;;;;;;;;;;5036281;28;19913;-84
2023/06/21 08:17:09;;;;;;;10.38;6.68;;;;;;;;;;5016912;28;20025;-85
2023/06/21 08:19:34;;;;;;;7.90;6.70;;;;;;;;;;5035011;28;20030;-80
2023/06/21 08:21:59;;;;;;;7.55;6.47;;;;;;;;;;5049708;28;20028;-81
2023/06/21 08:24:26;;;;;;;12.25;6.53;;;;;;;;;;5015101;28;20128;-81
2023/06/21 08:26:51;;;;;;;10.13;6.35;;;;;;;;;;5048755;28;20021;-83
2023/06/21 08:29:16;;;;;;;9.30;6.40;;;;;;;;;;5032211;28;20495;-83
2023/06/21 08:31:42;;;;;;;7.32;5.90;;;;;;;;;;5033872;28;20379;-81
2023/06/21 08:34:07;;;;;;;10.38;6.18;;;;;;;;;;5049904;28;20053;-81
2023/06/21 08:36:33;;;;;;;7.82;5.97;;;;;;;;;;5033494;28;20021;-82
2023/06/21 08:38:58;;;;;;;6.97;6.00;;;;;;;;;;5034654;28;20036;-81
2023/06/21 08:41:24;;;;;;;10.23;5.63;;;;;;;;;;5017199;28;20145;-82
2023/06/21 08:43:49;;;;;;;7.68;6.15;;;;;;;;;;5047565;28;20079;-81
2023/06/21 08:46:15;;;;;;;7.57;5.82;;;;;;;;;;5017740;28;20439;-81
2023/06/21 08:48:40;;;;;;;8.20;6.07;;;;;;;;;;5034314;28;20029;-83
2023/06/21 08:51:06;;;;;;;7.00;5.82;;;;;;;;;;5051126;28;20364;-82
2023/06/21 08:53:35;;;;;;;8.15;5.80;;;;;;;;;;5036432;28;20080;-82
2023/06/21 08:56:01;;;;;;;8.63;5.90;;;;;;;;;;5050208;28;20017;-82
2023/06/21 08:58:27;;;;;;;6.82;5.82;;;;;;;;;;5035096;28;20052;-82
2023/06/21 09:00:59;;;;;;;9.57;5.47;;;;;;;;;;5038395;28;20608;-82
2023/06/21 09:03:29;;;;;;;8.63;4.88;;;;;;;;;;5050417;28;20190;-83
2023/06/21 09:06:01;;;;;;;4.68;4.28;;;;;;;;;;5054913;28;20036;-83
2023/06/21 09:08:26;;;;;;;6.15;4.43;;;;;;;;;;5068718;28;20033;-82
2023/06/21 09:10:52;;;;;;;6.90;4.75;;;;;;;;;;5054550;28;20036;-83
2023/06/21 09:13:18;;;;;;;5.07;4.68;;;;;;;;;;5053163;28;20420;-83
2023/06/21 09:15:45;;;;;;;4.95;4.50;;;;;;;;;;5069576;28;20133;-82
2023/06/21 09:18:10;;;;;;;5.00;4.45;;;;;;;;;;5052218;28;20127;-82
2023/06/21 09:20:36;;;;;;;6.80;4.95;;;;;;;;;;5054397;28;20111;-82
2023/06/21 09:23:04;;;;;;;6.97;4.68;;;;;;;;;;5012432;28;20030;-81
2023/06/21 09:25:30;;;;;;;8.18;4.80;;;;;;;;;;5033826;28;20034;-82
2023/06/21 09:27:55;;;;;;;7.28;5.20;;;;;;;;;;5049706;28;20056;-82
2023/06/21 09:30:21;;;;;;;8.05;5.47;;;;;;;;;;5034083;28;20037;-82
2023/06/21 09:32:47;;;;;;;5.72;5.13;;;;;;;;;;5050694;28;20036;-82
2023/06/21 09:35:15;;;;;;;5.88;5.30;;;;;;;;;;5034587;28;20033;-80
2023/06/21 09:37:41;;;;;;;8.05;5.55;;;;;;;;;;5016138;28;20036;-82
2023/06/21 09:40:07;;;;;;;6.13;5.13;;;;;;;;;;5031880;28;20041;-82
2023/06/21 09:42:37;;;;;;;5.93;5.35;;;;;;;;;;5032168;28;20026;-82
2023/06/21 09:45:09;;;;;;;5.50;5.00;;;;;;;;;;5034233;28;20443;-80
2023/06/21 09:47:34;;;;;;;8.45;5.00;;;;;;;;;;5060736;28;20351;-81
2023/06/21 09:50:04;;;;;;;6.38;5.05;;;;;;;;;;5030303;28;20030;-81
2023/06/21 09:52:30;;;;;;;7.60;5.10;;;;;;;;;;5029950;28;20136;-80
2023/06/21 09:54:57;;;;;;;8.50;4.95;;;;;;;;;;5023012;28;20400;-81
2023/06/21 09:57:32;;;;;;;5.85;5.07;;;;;;;;;;5015035;28;20037;-81
2023/06/21 09:59:58;;;;;;;7.30;5.25;;;;;;;;;;5048521;28;20029;-81
2023/06/21 10:02:24;;;;;;;14.55;5.32;;;;;;;;;;5032583;28;20042;-81
2023/06/21 10:04:54;;;;;;;7.93;4.90;;;;;;;;;;5015035;28;20064;-80
2023/06/21 10:07:24;;;;;;;7.90;5.38;;;;;;;;;;5032742;28;20030;-82
2023/06/21 10:09:52;;;;;;;9.45;6.03;;;;;;;;;;5035587;28;20060;-82
2023/06/21 10:12:18;;;;;;;7.13;5.30;;;;;;;;;;5026905;28;20025;-81
2023/06/21 10:14:43;;;;;;;6.45;5.78;;;;;;;;;;5011383;28;20048;-81
2023/06/21 10:17:10;;;;;;;9.93;5.53;;;;;;;;;;5010886;28;20072;-81
2023/06/21 10:19:35;;;;;;;6.18;5.65;;;;;;;;;;5026800;28;20052;-81
2023/06/21 10:22:11;;;;;;;6.70;5.45;;;;;;;;;;4994091;28;20030;-81
2023/06/21 10:24:47;;;;;;;9.85;5.40;;;;;;;;;;5016520;28;20052;-81
2023/06/21 10:27:12;;;;;;;8.70;6.00;;;;;;;;;;5046942;28;20113;-83
2023/06/21 10:29:39;;;;;;;6.55;5.90;;;;;;;;;;5030637;28;20033;-79
2023/06/21 10:32:05;;;;;;;10.10;5.85;;;;;;;;;;5013726;28;20055;-82
2023/06/21 10:34:49;;;;;;;7.20;5.75;;;;;;;;;;5011677;28;20439;-82
2023/06/21 10:37:19;;;;;;;9.20;5.35;;;;;;;;;;5027606;28;20124;-81
2023/06/21 10:39:45;;;;;;;6.00;5.40;;;;;;;;;;5044678;28;20112;-82
2023/06/21 10:42:10;;;;;;;5.95;5.35;;;;;;;;;;5010359;28;20117;-80
2023/06/21 10:44:35;;;;;;;7.63;5.53;;;;;;;;;;5043452;28;20124;-82
2023/06/21 10:47:01;;;;;;;6.00;5.38;;;;;;;;;;5033105;28;20440;-82
2023/06/21 10:49:26;;;;;;;6.95;5.38;;;;;;;;;;5025408;28;20424;-84
2023/06/21 10:51:52;;;;;;;15.00;5.20;;;;;;;;;;5025954;28;20036;-81
2023/06/21 10:54:17;;;;;;;9.00;5.38;;;;;;;;;;5011772;28;20036;-82
2023/06/21 10:56:43;;;;;;;6.00;5.40;;;;;;;;;;5013626;28;20036;-82
2023/06/21 10:59:09;;;;;;;5.93;5.43;;;;;;;;;;5011890;28;20025;-82
2023/06/21 11:01:35;;;;;;;6.68;5.50;;;;;;;;;;5025810;28;20499;-81
2023/06/21 11:04:01;;;;;;;6.15;5.40;;;;;;;;;;5009348;28;20042;-81
2023/06/21 11:06:33;;;;;;;6.43;5.60;;;;;;;;;;5024947;28;20033;-82
2023/06/21 11:09:05;;;;;;;9.65;5.78;;;;;;;;;;5008920;28;20521;-83
2023/06/21 11:11:32;;;;;;;7.07;5.20;;;;;;;;;;5009727;28;20034;-82
2023/06/21 11:14:00;;;;;;;6.03;5.43;;;;;;;;;;5027137;28;20095;-82
2023/06/21 11:16:26;;;;;;;9.68;5.50;;;;;;;;;;5012450;28;20041;-83
2023/06/21 11:18:57;;;;;;;7.63;5.30;;;;;;;;;;4994751;28;20037;-84
2023/06/21 11:21:45;;;;;;;6.13;5.28;;;;;;;;;;4995449;28;20018;-85
2023/06/21 11:24:17;;;;;;;5.73;5.30;;;;;;;;;;5010563;28;20325;-84
2023/06/21 11:27:05;;;;;;;6.72;4.85;;;;;;;;;;4996274;28;20031;-81
2023/06/21 11:29:36;;;;;;;5.80;5.22;;;;;;;;;;5013667;28;20026;-82
2023/06/21 11:32:11;;;;;;;8.13;5.43;;;;;;;;;;5012805;28;20033;-82
2023/06/21 11:34:48;;;;;;;7.45;4.90;;;;;;;;;;5013481;28;20033;-82
2023/06/21 11:37:41;;;;;;;6.20;5.60;;;;;;;;;;4996175;28;20022;-84
2023/06/21 11:40:24;;;;;;;8.13;6.55;;;;;;;;;;5013961;28;20132;-82
2023/06/21 11:42:52;;;;;;;6.90;5.70;;;;;;;;;;5013664;28;20026;-83
2023/06/21 11:45:20;;;;;;;6.10;5.60;;;;;;;;;;5014134;28;20509;-83
2023/06/21 11:48:12;;;;;;;9.85;5.55;;;;;;;;;;5013725;28;20375;-84
2023/06/21 11:50:44;;;;;;;8.98;5.82;;;;;;;;;;5012648;28;20038;-85
2023/06/21 11:53:16;;;;;;;6.03;5.53;;;;;;;;;;5012632;28;20026;-83
2023/06/21 11:55:42;;;;;;;8.15;6.13;;;;;;;;;;5012456;28;20064;-82
2023/06/21 11:58:09;;;;;;;6.38;5.60;;;;;;;;;;5013902;28;20112;-84
2023/06/21 12:00:34;;;;;;;7.25;5.47;;;;;;;;;;5029276;28;20430;-84
2023/06/21 12:03:02;;;;;;;6.45;5.72;;;;;;;;;;5013233;28;20121;-83
2023/06/21 12:05:48;;;;;;;6.10;5.50;;;;;;;;;;5028606;28;20060;-84
2023/06/21 12:08:13;;;;;;;6.20;5.60;;;;;;;;;;5012323;28;20026;-84
2023/06/21 12:10:38;;;;;;;11.77;5.50;;;;;;;;;;5028893;28;20053;-84
2023/06/21 12:13:05;;;;;;;6.53;5.82;;;;;;;;;;5012442;28;20037;-83
2023/06/21 12:15:30;;;;;;;8.10;5.75;;;;;;;;;;5028585;28;20037;-84
2023/06/21 12:17:56;;;;;;;6.57;5.40;;;;;;;;;;5028453;28;20034;-85
2023/06/21 12:20:21;;;;;;;7.22;5.97;;;;;;;;;;5028519;28;20042;-85
2023/06/21 12:22:47;;;;;;;6.38;5.78;;;;;;;;;;5013795;28;20152;-86
2023/06/21 12:25:13;;;;;;;6.28;5.68;;;;;;;;;;5012489;28;20033;-86
2023/06/21 12:27:56;;;;;;;9.48;6.05;;;;;;;;;;5015090;28;20033;-89
2023/06/21 12:30:25;;;;;;;8.75;5.75;;;;;;;;;;5014331;28;20150;-82
2023/06/21 12:32:50;;;;;;;6.22;5.63;;;;;;;;;;4996349;28;20032;-92
2023/06/21 12:35:17;;;;;;;6.82;5.53;;;;;;;;;;5028705;28;20116;-87
2023/06/21 12:37:44;;;;;;;7.43;5.63;;;;;;;;;;5014880;28;20190;-88
2023/06/21 12:40:10;;;;;;;6.20;5.60;;;;;;;;;;5015560;28;20125;-88
2023/06/21 12:42:36;;;;;;;10.70;5.90;;;;;;;;;;5016865;28;20026;-88
2023/06/21 12:45:02;;;;;;;6.05;5.45;;;;;;;;;;4999576;28;20029;-89
2023/06/21 12:47:27;;;;;;;6.00;5.40;;;;;;;;;;5016887;28;20033;-90
2023/06/21 12:50:01;;;;;;;6.40;5.80;;;;;;;;;;5007889;28;20030;-90
2023/06/21 12:52:28;;;;;;;7.22;5.70;;;;;;;;;;5032061;28;20401;-90
2023/06/21 12:54:54;;;;;;;5.70;5.20;;;;;;;;;;5004581;28;20030;-89
2023/06/21 12:57:29;;;;;;;8.52;5.10;;;;;;;;;;5029156;28;20093;-91
2023/06/21 12:59:55;;;;;;;5.43;4.85;;;;;;;;;;5054379;28;20044;-86
2023/06/21 13:02:26;;;;;;;5.60;5.07;;;;;;;;;;5020475;28;20034;-91
2023/06/21 13:04:55;;;;;;;5.70;5.00;;;;;;;;;;5032699;28;20025;-91
2023/06/21 13:07:20;;;;;;;;;;;;;;;;;;5016906;28;20022;-87
2023/06/21 13:09:46;;;;;;;7.25;5.00;;;;;;;;;;5016804;28;19920;-88
2023/06/21 13:12:11;;;;;;;7.10;4.88;;;;;;;;;;5015760;28;20423;-89
2023/06/21 13:14:37;;;;;;;6.95;4.72;;;;;;;;;;5015018;28;20120;-88
2023/06/21 13:17:02;;;;;;;8.10;5.55;;;;;;;;;;5031260;28;20113;-87
2023/06/21 13:19:28;;;;;;;6.18;4.55;;;;;;;;;;5016269;28;20088;-86
2023/06/21 13:21:53;;;;;;;5.88;5.00;;;;;;;;;;4998939;28;20439;-89
2023/06/21 13:24:18;;;;;;;5.78;5.00;;;;;;;;;;5014827;28;20026;-92
2023/06/21 13:26:44;;;;;;;6.47;4.80;;;;;;;;;;4998722;28;20037;-92
2023/06/21 13:29:09;;;;;;;9.07;6.22;;;;;;;;;;5016067;28;20471;-94
2023/06/21 13:31:35;;;;;;;8.80;6.63;;;;;;;;;;5018030;28;20025;-92
2023/06/21 13:34:01;;;;;;;5.65;5.10;;;;;;;;;;5014704;28;20444;-92
2023/06/21 13:36:26;;;;;;;5.28;4.70;;;;;;;;;;5015766;28;20320;-92
2023/06/21 13:38:51;;;;;;;5.38;4.70;;;;;;;;;;4998049;28;20452;-94
2023/06/21 13:41:17;;;;;;;6.75;4.90;;;;;;;;;;5014919;28;20034;-90
2023/06/21 13:43:44;;;;;;;7.57;4.88;;;;;;;;;;5031551;28;20072;-92
2023/06/21 13:46:09;;;;;;;6.53;5.13;;;;;;;;;;5030639;28;20056;-92
2023/06/21 13:48:35;;;;;;;6.15;4.90;;;;;;;;;;5033212;28;20041;-93
2023/06/21 13:51:00;;;;;;;5.65;4.63;;;;;;;;;;5006004;28;20025;-93
2023/06/21 13:53:27;;;;;;;8.63;4.43;;;;;;;;;;5032930;28;20344;-92
2023/06/21 13:55:52;;;;;;;5.05;4.55;;;;;;;;;;4998207;28;20443;-92
2023/06/21 13:58:18;;;;;;;6.55;4.53;;;;;;;;;;5031388;28;20029;-92
2023/06/21 14:00:43;;;;;;;7.50;6.70;;;;;;;;;;5031120;28;20037;-89
2023/06/21 14:03:09;;;;;;;6.43;4.40;;;;;;;;;;5030795;28;20096;-93
2023/06/21 14:05:34;;;;;;;6.53;4.47;;;;;;;;;;4998434;28;20124;-92
2023/06/21 14:08:00;;;;;;;4.88;4.45;;;;;;;;;;5031917;28;20026;-93
2023/06/21 14:10:25;;;;;;;6.10;4.07;;;;;;;;;;5034984;28;20139;-94
2023/06/21 14:12:51;;;;;;;4.50;4.10;;;;;;;;;;5014236;28;20026;-82
2023/06/21 14:15:16;;;;;;;4.53;4.07;;;;;;;;;;5013539;28;20589;-80
2023/06/21 14:17:42;;;;;;;4.30;3.90;;;;;;;;;;5013759;28;20109;-80
2023/06/21 14:20:09;;;;;;;4.47;3.85;;;;;;;;;;5013579;28;20029;-80
2023/06/21 14:22:37;;;;;;;4.50;3.72;;;;;;;;;;4997332;28;20032;-80
2023/06/21 14:25:05;;;;;;;4.68;4.00;;;;;;;;;;5014780;28;20415;-82
2023/06/21 14:27:31;;;;;;;8.85;4.30;;;;;;;;;;4996846;28;20030;-80
2023/06/21 14:30:01;;;;;;;5.50;3.92;;;;;;;;;;5013988;28;20088;-82